sensor_id;sensor_type;location;lat;lon;timestamp;pressure;altitude;pressure_sealevel;temperature;humidity
66273;BME280;58450;52.150;4.466;2022-09-06T00:00:16;101570.47;;;19.31;100.00
66273;BME280;58450;52.150;4.466;2022-09-06T00:02:44;101571.69;;;19.35;100.00
66273;BME280;58450;52.150;4.466;2022-09-06T00:05:12;101579.22;;;19.40;100.00
66273;BME280;58450;52.150;4.466;2022-09-06T00:07:40;101575.19;;;19.42;100.00
66273;BME280;58450;52.150;4.466;2022-09-06T00:10:09;101579.31;;;19.45;100.00
66273;BME280;58450;52.150;4.466;2022-09-06T00:12:37;101584.13;;;19.49;100.00
66273;BME280;58450;52.150;4.466;2022-09-06T00:15:06;101595.63;;;19.52;100.00
66273;BME280;58450;52.150;4.466;2022-09-06T00:17:35;101599.88;;;19.47;100.00
66273;BME280;58450;52.150;4.466;2022-09-06T00:20:04;101607.00;;;19.48;100.00
66273;BME280;58450;52.150;4.466;2022-09-06T00:22:34;101618.59;;;19.44;100.00
66273;BME280;58450;52.150;4.466;2022-09-06T00:25:02;101641.72;;;19.23;100.00
66273;BME280;58450;52.150;4.466;2022-09-06T00:27:30;101629.28;;;19.08;100.00
66273;BME280;58450;52.150;4.466;2022-09-06T00:29:58;101653.91;;;19.01;100.00
66273;BME280;58450;52.150;4.466;2022-09-06T00:32:26;101649.53;;;18.94;100.00
66273;BME280;58450;52.150;4.466;2022-09-06T00:34:55;101648.31;;;18.89;100.00
66273;BME280;58450;52.150;4.466;2022-09-06T00:37:23;101647.91;;;18.86;100.00
66273;BME280;58450;52.150;4.466;2022-09-06T00:39:50;101641.81;;;18.90;100.00
66273;BME280;58450;52.150;4.466;2022-09-06T00:42:17;101631.50;;;18.93;100.00
66273;BME280;58450;52.150;4.466;2022-09-06T00:44:45;101621.84;;;18.97;100.00
66273;BME280;58450;52.150;4.466;2022-09-06T00:47:15;101625.19;;;18.99;100.00
66273;BME280;58450;52.150;4.466;2022-09-06T00:49:45;101616.31;;;19.03;100.00
66273;BME280;58450;52.150;4.466;2022-09-06T00:52:16;101625.31;;;19.04;100.00
66273;BME280;58450;52.150;4.466;2022-09-06T00:54:46;101611.56;;;18.99;100.00
66273;BME280;58450;52.150;4.466;2022-09-06T00:57:17;101610.25;;;19.01;100.00
66273;BME280;58450;52.150;4.466;2022-09-06T00:59:45;101599.09;;;19.03;100.00
66273;BME280;58450;52.150;4.466;2022-09-06T01:02:17;101599.50;;;19.07;100.00
66273;BME280;58450;52.150;4.466;2022-09-06T01:04:46;101600.78;;;19.04;100.00
66273;BME280;58450;52.150;4.466;2022-09-06T01:07:26;101592.59;;;19.04;100.00
66273;BME280;58450;52.150;4.466;2022-09-06T01:10:17;101574.56;;;19.03;100.00
66273;BME280;58450;52.150;4.466;2022-09-06T01:13:03;101562.22;;;19.00;100.00
66273;BME280;58450;52.150;4.466;2022-09-06T01:15:52;101542.88;;;19.02;100.00
66273;BME280;58450;52.150;4.466;2022-09-06T01:18:34;101542.06;;;19.01;100.00
66273;BME280;58450;52.150;4.466;2022-09-06T01:21:31;101538.13;;;18.97;100.00
66273;BME280;58450;52.150;4.466;2022-09-06T01:24:31;101530.00;;;18.90;100.00
66273;BME280;58450;52.150;4.466;2022-09-06T01:27:49;101530.88;;;18.84;100.00
66273;BME280;58450;52.150;4.466;2022-09-06T01:30:30;101540.94;;;18.84;100.00
66273;BME280;58450;52.150;4.466;2022-09-06T01:33:08;101531.56;;;18.80;100.00
66273;BME280;58450;52.150;4.466;2022-09-06T01:35:47;101530.50;;;18.81;100.00
66273;BME280;58450;52.150;4.466;2022-09-06T01:38:20;101526.09;;;18.80;100.00
66273;BME280;58450;52.150;4.466;2022-09-06T01:40:48;101519.81;;;18.79;100.00
66273;BME280;58450;52.150;4.466;2022-09-06T01:43:21;101522.56;;;18.79;100.00
66273;BME280;58450;52.150;4.466;2022-09-06T01:45:59;101526.53;;;18.76;100.00
66273;BME280;58450;52.150;4.466;2022-09-06T01:48:39;101511.50;;;18.74;100.00
66273;BME280;58450;52.150;4.466;2022-09-06T01:51:30;101508.97;;;18.72;100.00
66273;BME280;58450;52.150;4.466;2022-09-06T01:54:23;101509.97;;;18.78;100.00
66273;BME280;58450;52.150;4.466;2022-09-06T01:57:01;101496.09;;;18.80;100.00
66273;BME280;58450;52.150;4.466;2022-09-06T01:59:53;101489.84;;;18.79;100.00
66273;BME280;58450;52.150;4.466;2022-09-06T02:02:39;101487.09;;;18.79;100.00
66273;BME280;58450;52.150;4.466;2022-09-06T02:05:20;101485.66;;;18.76;100.00
66273;BME280;58450;52.150;4.466;2022-09-06T02:07:56;101477.72;;;18.75;100.00
66273;BME280;58450;52.150;4.466;2022-09-06T02:10:30;101484.88;;;18.69;100.00
66273;BME280;58450;52.150;4.466;2022-09-06T02:13:05;101478.81;;;18.67;100.00
66273;BME280;58450;52.150;4.466;2022-09-06T02:15:42;101476.78;;;18.63;100.00
66273;BME280;58450;52.150;4.466;2022-09-06T02:18:15;101478.28;;;18.58;100.00
66273;BME280;58450;52.150;4.466;2022-09-06T02:20:50;101479.34;;;18.57;100.00
66273;BME280;58450;52.150;4.466;2022-09-06T02:23:23;101485.00;;;18.56;100.00
66273;BME280;58450;52.150;4.466;2022-09-06T02:25:57;101494.03;;;18.56;100.00
66273;BME280;58450;52.150;4.466;2022-09-06T02:28:30;101502.47;;;18.55;100.00
66273;BME280;58450;52.150;4.466;2022-09-06T02:31:01;101506.00;;;18.55;100.00
66273;BME280;58450;52.150;4.466;2022-09-06T02:33:32;101512.75;;;18.53;100.00
66273;BME280;58450;52.150;4.466;2022-09-06T02:36:03;101507.31;;;18.53;100.00
66273;BME280;58450;52.150;4.466;2022-09-06T02:38:36;101513.13;;;18.56;100.00
66273;BME280;58450;52.150;4.466;2022-09-06T02:41:06;101509.94;;;18.59;100.00
66273;BME280;58450;52.150;4.466;2022-09-06T02:43:35;101521.47;;;18.61;100.00
66273;BME280;58450;52.150;4.466;2022-09-06T02:46:04;101521.63;;;18.67;100.00
66273;BME280;58450;52.150;4.466;2022-09-06T02:48:31;101527.91;;;18.67;100.00
66273;BME280;58450;52.150;4.466;2022-09-06T02:51:01;101527.69;;;18.69;100.00
66273;BME280;58450;52.150;4.466;2022-09-06T02:53:30;101530.41;;;18.69;100.00
66273;BME280;58450;52.150;4.466;2022-09-06T02:55:58;101540.25;;;18.70;100.00
66273;BME280;58450;52.150;4.466;2022-09-06T02:58:25;101534.19;;;18.68;100.00
66273;BME280;58450;52.150;4.466;2022-09-06T03:00:54;101527.06;;;18.67;100.00
66273;BME280;58450;52.150;4.466;2022-09-06T03:03:23;101531.47;;;18.68;100.00
66273;BME280;58450;52.150;4.466;2022-09-06T03:05:53;101524.09;;;18.68;100.00
66273;BME280;58450;52.150;4.466;2022-09-06T03:08:22;101530.63;;;18.67;100.00
66273;BME280;58450;52.150;4.466;2022-09-06T03:10:52;101529.13;;;18.71;100.00
66273;BME280;58450;52.150;4.466;2022-09-06T03:13:22;101528.06;;;18.72;100.00
66273;BME280;58450;52.150;4.466;2022-09-06T03:15:51;101528.47;;;18.76;100.00
66273;BME280;58450;52.150;4.466;2022-09-06T03:18:21;101527.59;;;18.75;100.00
66273;BME280;58450;52.150;4.466;2022-09-06T03:20:51;101526.34;;;18.78;100.00
66273;BME280;58450;52.150;4.466;2022-09-06T03:23:21;101526.19;;;18.73;100.00
66273;BME280;58450;52.150;4.466;2022-09-06T03:25:50;101532.91;;;18.70;100.00
66273;BME280;58450;52.150;4.466;2022-09-06T03:28:19;101546.78;;;18.69;100.00
66273;BME280;58450;52.150;4.466;2022-09-06T03:30:49;101549.50;;;18.69;100.00
66273;BME280;58450;52.150;4.466;2022-09-06T03:33:17;101555.56;;;18.71;100.00
66273;BME280;58450;52.150;4.466;2022-09-06T03:35:49;101559.09;;;18.71;100.00
66273;BME280;58450;52.150;4.466;2022-09-06T03:38:18;101561.38;;;18.74;100.00
66273;BME280;58450;52.150;4.466;2022-09-06T03:40:47;101568.50;;;18.75;100.00
66273;BME280;58450;52.150;4.466;2022-09-06T03:43:16;101553.00;;;18.76;100.00
66273;BME280;58450;52.150;4.466;2022-09-06T03:45:46;101571.22;;;18.75;100.00
66273;BME280;58450;52.150;4.466;2022-09-06T03:48:15;101565.41;;;18.72;100.00
66273;BME280;58450;52.150;4.466;2022-09-06T03:50:44;101583.47;;;18.66;100.00
66273;BME280;58450;52.150;4.466;2022-09-06T03:53:15;101601.22;;;18.50;100.00
66273;BME280;58450;52.150;4.466;2022-09-06T03:55:43;101605.38;;;18.27;100.00
66273;BME280;58450;52.150;4.466;2022-09-06T03:58:11;101617.38;;;18.20;100.00
66273;BME280;58450;52.150;4.466;2022-09-06T04:00:39;101624.53;;;18.14;100.00
66273;BME280;58450;52.150;4.466;2022-09-06T04:03:07;101620.41;;;18.05;100.00
66273;BME280;58450;52.150;4.466;2022-09-06T04:05:35;101612.69;;;18.01;100.00
66273;BME280;58450;52.150;4.466;2022-09-06T04:08:03;101603.47;;;18.02;100.00
66273;BME280;58450;52.150;4.466;2022-09-06T04:10:32;101588.13;;;18.08;100.00
66273;BME280;58450;52.150;4.466;2022-09-06T04:12:59;101589.13;;;18.14;100.00
66273;BME280;58450;52.150;4.466;2022-09-06T04:15:27;101597.09;;;18.15;100.00
66273;BME280;58450;52.150;4.466;2022-09-06T04:17:54;101602.91;;;18.19;100.00
66273;BME280;58450;52.150;4.466;2022-09-06T04:20:22;101604.81;;;18.19;100.00
66273;BME280;58450;52.150;4.466;2022-09-06T04:22:49;101611.19;;;18.06;100.00
66273;BME280;58450;52.150;4.466;2022-09-06T04:25:17;101615.00;;;17.91;100.00
66273;BME280;58450;52.150;4.466;2022-09-06T04:27:45;101613.34;;;17.90;100.00
66273;BME280;58450;52.150;4.466;2022-09-06T04:30:13;101613.34;;;17.90;100.00
66273;BME280;58450;52.150;4.466;2022-09-06T04:32:40;101605.78;;;17.92;100.00
66273;BME280;58450;52.150;4.466;2022-09-06T04:35:08;101593.59;;;17.95;100.00
66273;BME280;58450;52.150;4.466;2022-09-06T04:37:35;101587.72;;;17.98;100.00
66273;BME280;58450;52.150;4.466;2022-09-06T04:40:04;101578.75;;;17.97;100.00
66273;BME280;58450;52.150;4.466;2022-09-06T04:42:32;101589.41;;;17.99;100.00
66273;BME280;58450;52.150;4.466;2022-09-06T04:45:01;101584.38;;;17.96;100.00
66273;BME280;58450;52.150;4.466;2022-09-06T04:47:28;101577.72;;;17.92;100.00
66273;BME280;58450;52.150;4.466;2022-09-06T04:49:56;101579.38;;;17.93;100.00
66273;BME280;58450;52.150;4.466;2022-09-06T04:52:23;101568.72;;;17.91;100.00
66273;BME280;58450;52.150;4.466;2022-09-06T04:54:50;101579.59;;;17.91;100.00
66273;BME280;58450;52.150;4.466;2022-09-06T04:57:18;101560.53;;;17.91;100.00
66273;BME280;58450;52.150;4.466;2022-09-06T04:59:45;101554.25;;;17.91;100.00
66273;BME280;58450;52.150;4.466;2022-09-06T05:02:14;101547.56;;;17.93;100.00
66273;BME280;58450;52.150;4.466;2022-09-06T05:04:41;101538.31;;;17.94;100.00
66273;BME280;58450;52.150;4.466;2022-09-06T05:07:09;101533.69;;;17.95;100.00
66273;BME280;58450;52.150;4.466;2022-09-06T05:09:36;101534.31;;;17.97;100.00
66273;BME280;58450;52.150;4.466;2022-09-06T05:12:04;101528.66;;;17.98;100.00
66273;BME280;58450;52.150;4.466;2022-09-06T05:14:32;101525.31;;;17.96;100.00
66273;BME280;58450;52.150;4.466;2022-09-06T05:17:00;101541.50;;;17.91;100.00
66273;BME280;58450;52.150;4.466;2022-09-06T05:19:29;101542.97;;;17.87;100.00
66273;BME280;58450;52.150;4.466;2022-09-06T05:21:56;101533.13;;;17.86;100.00
66273;BME280;58450;52.150;4.466;2022-09-06T05:24:23;101526.41;;;17.88;100.00
66273;BME280;58450;52.150;4.466;2022-09-06T05:26:51;101520.75;;;17.90;100.00
66273;BME280;58450;52.150;4.466;2022-09-06T05:29:18;101515.06;;;17.92;100.00
66273;BME280;58450;52.150;4.466;2022-09-06T05:31:46;101517.34;;;17.95;100.00
66273;BME280;58450;52.150;4.466;2022-09-06T05:34:13;101519.47;;;17.99;100.00
66273;BME280;58450;52.150;4.466;2022-09-06T05:36:42;101521.75;;;18.02;100.00
66273;BME280;58450;52.150;4.466;2022-09-06T05:39:11;101521.06;;;18.07;100.00
66273;BME280;58450;52.150;4.466;2022-09-06T05:41:38;101514.13;;;18.11;100.00
66273;BME280;58450;52.150;4.466;2022-09-06T05:44:06;101508.84;;;18.16;100.00
66273;BME280;58450;52.150;4.466;2022-09-06T05:46:33;101511.97;;;18.20;100.00
66273;BME280;58450;52.150;4.466;2022-09-06T05:49:08;101517.13;;;18.28;100.00
66273;BME280;58450;52.150;4.466;2022-09-06T05:51:35;101516.84;;;18.37;100.00
66273;BME280;58450;52.150;4.466;2022-09-06T05:54:04;101519.09;;;18.46;100.00
66273;BME280;58450;52.150;4.466;2022-09-06T05:56:32;101522.59;;;18.54;100.00
66273;BME280;58450;52.150;4.466;2022-09-06T05:59:00;101518.50;;;18.63;100.00
66273;BME280;58450;52.150;4.466;2022-09-06T06:01:28;101520.94;;;18.71;100.00
66273;BME280;58450;52.150;4.466;2022-09-06T06:03:57;101516.94;;;18.74;100.00
66273;BME280;58450;52.150;4.466;2022-09-06T06:06:28;101518.97;;;18.79;100.00
66273;BME280;58450;52.150;4.466;2022-09-06T06:08:57;101512.09;;;18.76;100.00
66273;BME280;58450;52.150;4.466;2022-09-06T06:11:26;101511.66;;;18.79;100.00
66273;BME280;58450;52.150;4.466;2022-09-06T06:13:54;101517.91;;;18.80;100.00
66273;BME280;58450;52.150;4.466;2022-09-06T06:16:23;101510.50;;;18.87;100.00
66273;BME280;58450;52.150;4.466;2022-09-06T06:18:51;101504.06;;;18.81;100.00
66273;BME280;58450;52.150;4.466;2022-09-06T06:21:20;101492.34;;;18.99;100.00
66273;BME280;58450;52.150;4.466;2022-09-06T06:23:51;101499.06;;;19.15;100.00
66273;BME280;58450;52.150;4.466;2022-09-06T06:26:20;101486.19;;;19.23;100.00
66273;BME280;58450;52.150;4.466;2022-09-06T06:28:50;101488.38;;;19.32;100.00
66273;BME280;58450;52.150;4.466;2022-09-06T06:31:18;101483.56;;;19.46;100.00
66273;BME280;58450;52.150;4.466;2022-09-06T06:33:47;101481.19;;;19.50;100.00
66273;BME280;58450;52.150;4.466;2022-09-06T06:36:19;101474.00;;;19.56;100.00
66273;BME280;58450;52.150;4.466;2022-09-06T06:38:49;101481.94;;;19.57;100.00
66273;BME280;58450;52.150;4.466;2022-09-06T06:41:20;101471.41;;;19.61;100.00
66273;BME280;58450;52.150;4.466;2022-09-06T06:43:51;101477.78;;;19.55;100.00
66273;BME280;58450;52.150;4.466;2022-09-06T06:46:20;101482.22;;;19.68;100.00
66273;BME280;58450;52.150;4.466;2022-09-06T06:48:49;101488.66;;;19.73;100.00
66273;BME280;58450;52.150;4.466;2022-09-06T06:51:18;101481.47;;;19.91;100.00
66273;BME280;58450;52.150;4.466;2022-09-06T06:53:47;101492.19;;;20.04;100.00
66273;BME280;58450;52.150;4.466;2022-09-06T06:56:16;101482.44;;;20.08;100.00
66273;BME280;58450;52.150;4.466;2022-09-06T06:58:47;101475.34;;;20.19;100.00
66273;BME280;58450;52.150;4.466;2022-09-06T07:01:18;101480.59;;;20.45;100.00
66273;BME280;58450;52.150;4.466;2022-09-06T07:03:47;101491.03;;;20.60;100.00
66273;BME280;58450;52.150;4.466;2022-09-06T07:06:15;101486.53;;;20.77;100.00
66273;BME280;58450;52.150;4.466;2022-09-06T07:08:44;101482.34;;;20.87;100.00
66273;BME280;58450;52.150;4.466;2022-09-06T07:11:14;101485.03;;;21.10;100.00
66273;BME280;58450;52.150;4.466;2022-09-06T07:13:42;101486.69;;;21.40;100.00
66273;BME280;58450;52.150;4.466;2022-09-06T07:16:12;101482.50;;;21.50;100.00
66273;BME280;58450;52.150;4.466;2022-09-06T07:18:43;101476.78;;;21.80;100.00
66273;BME280;58450;52.150;4.466;2022-09-06T07:21:12;101478.69;;;22.31;100.00
66273;BME280;58450;52.150;4.466;2022-09-06T07:23:41;101467.78;;;22.53;100.00
66273;BME280;58450;52.150;4.466;2022-09-06T07:26:13;101459.53;;;23.15;100.00
66273;BME280;58450;52.150;4.466;2022-09-06T07:28:41;101452.25;;;23.53;100.00
66273;BME280;58450;52.150;4.466;2022-09-06T07:31:09;101452.75;;;23.78;100.00
66273;BME280;58450;52.150;4.466;2022-09-06T07:33:37;101455.03;;;24.18;100.00
66273;BME280;58450;52.150;4.466;2022-09-06T07:36:07;101461.84;;;25.12;100.00
66273;BME280;58450;52.150;4.466;2022-09-06T07:38:36;101460.00;;;25.49;100.00
66273;BME280;58450;52.150;4.466;2022-09-06T07:41:05;101452.84;;;26.25;93.16
66273;BME280;58450;52.150;4.466;2022-09-06T07:43:34;101452.03;;;25.94;91.35
66273;BME280;58450;52.150;4.466;2022-09-06T07:46:04;101450.56;;;25.29;92.02
66273;BME280;58450;52.150;4.466;2022-09-06T07:48:33;101448.94;;;25.33;87.60
66273;BME280;58450;52.150;4.466;2022-09-06T07:51:04;101452.03;;;26.04;86.73
66273;BME280;58450;52.150;4.466;2022-09-06T07:53:36;101456.25;;;26.98;84.84
66273;BME280;58450;52.150;4.466;2022-09-06T07:56:06;101454.69;;;27.72;78.32
66273;BME280;58450;52.150;4.466;2022-09-06T07:58:35;101455.22;;;27.29;69.70
66273;BME280;58450;52.150;4.466;2022-09-06T08:01:19;101456.03;;;28.09;68.81
66273;BME280;58450;52.150;4.466;2022-09-06T08:03:55;101456.75;;;28.20;66.51
66273;BME280;58450;52.150;4.466;2022-09-06T08:06:27;101461.34;;;27.66;68.72
66273;BME280;58450;52.150;4.466;2022-09-06T08:08:56;101457.56;;;26.04;74.17
66273;BME280;58450;52.150;4.466;2022-09-06T08:11:27;101462.88;;;24.96;82.02
66273;BME280;58450;52.150;4.466;2022-09-06T08:13:57;101473.44;;;25.30;83.32
66273;BME280;58450;52.150;4.466;2022-09-06T08:16:28;101472.59;;;25.24;84.60
66273;BME280;58450;52.150;4.466;2022-09-06T08:18:57;101479.63;;;24.84;87.50
66273;BME280;58450;52.150;4.466;2022-09-06T08:21:28;101489.66;;;25.21;86.19
66273;BME280;58450;52.150;4.466;2022-09-06T08:23:59;101479.84;;;25.46;85.52
66273;BME280;58450;52.150;4.466;2022-09-06T08:26:30;101494.78;;;25.76;83.68
66273;BME280;58450;52.150;4.466;2022-09-06T08:29:00;101486.22;;;25.88;82.05
66273;BME280;58450;52.150;4.466;2022-09-06T08:31:29;101477.41;;;25.55;84.20
66273;BME280;58450;52.150;4.466;2022-09-06T08:33:59;101472.69;;;26.38;78.90
66273;BME280;58450;52.150;4.466;2022-09-06T08:36:28;101480.03;;;26.89;75.94
66273;BME280;58450;52.150;4.466;2022-09-06T08:38:56;101473.69;;;26.89;74.65
66273;BME280;58450;52.150;4.466;2022-09-06T08:41:26;101474.25;;;26.86;77.53
66273;BME280;58450;52.150;4.466;2022-09-06T08:43:59;101466.41;;;27.03;75.44
66273;BME280;58450;52.150;4.466;2022-09-06T08:46:35;101469.34;;;26.62;77.46
66273;BME280;58450;52.150;4.466;2022-09-06T08:49:05;101465.63;;;27.53;75.65
66273;BME280;58450;52.150;4.466;2022-09-06T08:51:49;101466.22;;;28.14;71.36
66273;BME280;58450;52.150;4.466;2022-09-06T08:54:27;101455.59;;;29.18;66.55
66273;BME280;58450;52.150;4.466;2022-09-06T08:57:08;101457.16;;;30.29;62.82
66273;BME280;58450;52.150;4.466;2022-09-06T08:59:40;101453.88;;;30.41;60.46
66273;BME280;58450;52.150;4.466;2022-09-06T09:02:11;101450.53;;;30.11;58.18
66273;BME280;58450;52.150;4.466;2022-09-06T09:04:47;101445.31;;;30.23;58.76
66273;BME280;58450;52.150;4.466;2022-09-06T09:07:37;101448.75;;;30.34;56.96
66273;BME280;58450;52.150;4.466;2022-09-06T09:10:14;101456.94;;;30.12;58.85
66273;BME280;58450;52.150;4.466;2022-09-06T09:12:49;101455.00;;;29.60;60.71
66273;BME280;58450;52.150;4.466;2022-09-06T09:15:18;101462.41;;;29.07;62.08
66273;BME280;58450;52.150;4.466;2022-09-06T09:17:49;101467.84;;;28.20;66.50
66273;BME280;58450;52.150;4.466;2022-09-06T09:20:19;101459.50;;;28.50;67.28
66273;BME280;58450;52.150;4.466;2022-09-06T09:22:49;101453.22;;;29.50;63.86
66273;BME280;58450;52.150;4.466;2022-09-06T09:25:19;101464.28;;;29.69;58.91
66273;BME280;58450;52.150;4.466;2022-09-06T09:27:51;101462.91;;;28.90;61.15
66273;BME280;58450;52.150;4.466;2022-09-06T09:30:23;101463.31;;;28.29;63.81
66273;BME280;58450;52.150;4.466;2022-09-06T09:32:52;101462.66;;;26.83;69.59
66273;BME280;58450;52.150;4.466;2022-09-06T09:35:22;101463.72;;;26.93;70.90
66273;BME280;58450;52.150;4.466;2022-09-06T09:38:00;101466.44;;;27.53;68.86
66273;BME280;58450;52.150;4.466;2022-09-06T09:40:34;101472.31;;;28.11;65.25
66273;BME280;58450;52.150;4.466;2022-09-06T09:43:19;101481.00;;;26.22;72.31
66273;BME280;58450;52.150;4.466;2022-09-06T09:46:09;101489.88;;;27.61;71.75
66273;BME280;58450;52.150;4.466;2022-09-06T09:49:04;101505.50;;;25.72;76.45
66273;BME280;58450;52.150;4.466;2022-09-06T09:51:34;101496.44;;;26.23;77.67
66273;BME280;58450;52.150;4.466;2022-09-06T09:54:07;101505.53;;;26.03;77.32
66273;BME280;58450;52.150;4.466;2022-09-06T09:56:39;101504.16;;;25.75;77.71
66273;BME280;58450;52.150;4.466;2022-09-06T09:59:24;101508.75;;;25.38;80.98
66273;BME280;58450;52.150;4.466;2022-09-06T10:01:55;101500.81;;;25.52;83.74
66273;BME280;58450;52.150;4.466;2022-09-06T10:04:29;101483.88;;;24.59;87.32
66273;BME280;58450;52.150;4.466;2022-09-06T10:07:10;101497.56;;;25.91;81.11
66273;BME280;58450;52.150;4.466;2022-09-06T10:09:45;101484.94;;;27.03;73.96
66273;BME280;58450;52.150;4.466;2022-09-06T10:12:17;101475.44;;;28.34;68.69
66273;BME280;58450;52.150;4.466;2022-09-06T10:14:53;101480.47;;;28.56;65.19
66273;BME280;58450;52.150;4.466;2022-09-06T10:17:28;101487.91;;;28.60;63.80
66273;BME280;58450;52.150;4.466;2022-09-06T10:19:59;101495.44;;;29.99;59.40
66273;BME280;58450;52.150;4.466;2022-09-06T10:22:34;101497.78;;;29.15;61.16
66273;BME280;58450;52.150;4.466;2022-09-06T10:25:35;101498.75;;;29.05;60.14
66273;BME280;58450;52.150;4.466;2022-09-06T10:31:24;101509.66;;;26.47;73.67
66273;BME280;58450;52.150;4.466;2022-09-06T10:34:51;101507.44;;;25.61;80.61
66273;BME280;58450;52.150;4.466;2022-09-06T10:40:50;101515.41;;;26.72;73.02
66273;BME280;58450;52.150;4.466;2022-09-06T10:43:27;101519.91;;;26.42;75.13
66273;BME280;58450;52.150;4.466;2022-09-06T10:46:02;101519.03;;;26.46;76.88
66273;BME280;58450;52.150;4.466;2022-09-06T10:48:38;101538.88;;;25.76;79.47
66273;BME280;58450;52.150;4.466;2022-09-06T10:51:13;101536.44;;;25.00;87.63
66273;BME280;58450;52.150;4.466;2022-09-06T10:53:51;101544.94;;;24.18;95.92
66273;BME280;58450;52.150;4.466;2022-09-06T10:56:28;101545.13;;;23.56;100.00
66273;BME280;58450;52.150;4.466;2022-09-06T10:59:08;101540.41;;;23.07;100.00
66273;BME280;58450;52.150;4.466;2022-09-06T11:01:52;101541.63;;;22.94;100.00
66273;BME280;58450;52.150;4.466;2022-09-06T11:04:32;101529.22;;;23.58;100.00
66273;BME280;58450;52.150;4.466;2022-09-06T11:07:05;101525.31;;;24.42;100.00
66273;BME280;58450;52.150;4.466;2022-09-06T11:09:43;101526.19;;;24.96;96.01
66273;BME280;58450;52.150;4.466;2022-09-06T11:12:25;101524.69;;;25.26;93.93
66273;BME280;58450;52.150;4.466;2022-09-06T11:15:04;101517.09;;;26.57;87.87
66273;BME280;58450;52.150;4.466;2022-09-06T11:17:37;101525.50;;;27.12;79.41
66273;BME280;58450;52.150;4.466;2022-09-06T11:20:13;101525.84;;;27.01;77.20
66273;BME280;58450;52.150;4.466;2022-09-06T11:23:03;101530.34;;;25.98;84.71
66273;BME280;58450;52.150;4.466;2022-09-06T11:26:02;101538.88;;;24.54;90.67
66273;BME280;58450;52.150;4.466;2022-09-06T11:28:43;101531.72;;;24.53;90.87
66273;BME280;58450;52.150;4.466;2022-09-06T11:31:21;101547.56;;;25.31;86.61
66273;BME280;58450;52.150;4.466;2022-09-06T11:34:02;101536.38;;;25.59;87.73
66273;BME280;58450;52.150;4.466;2022-09-06T11:36:35;101541.78;;;25.33;86.04
66273;BME280;58450;52.150;4.466;2022-09-06T11:39:07;101533.63;;;25.64;82.91
66273;BME280;58450;52.150;4.466;2022-09-06T11:41:38;101545.50;;;25.80;83.91
66273;BME280;58450;52.150;4.466;2022-09-06T11:44:09;101552.53;;;25.40;87.68
66273;BME280;58450;52.150;4.466;2022-09-06T11:46:56;101560.41;;;24.67;89.15
66273;BME280;58450;52.150;4.466;2022-09-06T11:49:36;101556.47;;;24.53;92.84
66273;BME280;58450;52.150;4.466;2022-09-06T11:55:35;101560.94;;;25.02;88.54
66273;BME280;58450;52.150;4.466;2022-09-06T11:58:09;101557.03;;;24.98;87.22
66273;BME280;58450;52.150;4.466;2022-09-06T12:04:04;101560.03;;;25.44;90.85
66273;BME280;58450;52.150;4.466;2022-09-06T12:06:35;101555.00;;;25.31;92.32
66273;BME280;58450;52.150;4.466;2022-09-06T12:09:28;101566.75;;;25.05;92.95
66273;BME280;58450;52.150;4.466;2022-09-06T12:11:58;101560.84;;;25.45;91.37
66273;BME280;58450;52.150;4.466;2022-09-06T12:14:29;101551.22;;;24.89;91.27
66273;BME280;58450;52.150;4.466;2022-09-06T12:17:26;101551.66;;;25.23;92.42
66273;BME280;58450;52.150;4.466;2022-09-06T12:23:39;101527.56;;;26.55;79.70
66273;BME280;58450;52.150;4.466;2022-09-06T12:26:09;101530.03;;;26.77;79.43
66273;BME280;58450;52.150;4.466;2022-09-06T12:28:45;101537.28;;;26.01;80.96
66273;BME280;58450;52.150;4.466;2022-09-06T12:31:23;101519.06;;;26.25;79.64
66273;BME280;58450;52.150;4.466;2022-09-06T12:33:57;101512.91;;;26.91;79.85
66273;BME280;58450;52.150;4.466;2022-09-06T12:36:26;101517.97;;;26.21;72.07
66273;BME280;58450;52.150;4.466;2022-09-06T12:38:59;101507.72;;;26.53;73.88
66273;BME280;58450;52.150;4.466;2022-09-06T12:41:30;101509.00;;;27.47;71.02
66273;BME280;58450;52.150;4.466;2022-09-06T12:44:04;101499.66;;;27.83;71.29
66273;BME280;58450;52.150;4.466;2022-09-06T12:46:33;101500.72;;;27.87;70.19
66273;BME280;58450;52.150;4.466;2022-09-06T12:49:06;101498.47;;;27.94;66.57
66273;BME280;58450;52.150;4.466;2022-09-06T12:51:36;101486.84;;;28.56;64.90
66273;BME280;58450;52.150;4.466;2022-09-06T12:54:16;101494.41;;;28.45;62.59
66273;BME280;58450;52.150;4.466;2022-09-06T12:56:47;101492.00;;;28.63;62.10
66273;BME280;58450;52.150;4.466;2022-09-06T12:59:17;101484.41;;;28.74;61.13
66273;BME280;58450;52.150;4.466;2022-09-06T13:01:51;101490.56;;;28.17;62.47
66273;BME280;58450;52.150;4.466;2022-09-06T13:04:31;101494.50;;;27.26;67.64
66273;BME280;58450;52.150;4.466;2022-09-06T13:07:05;101499.38;;;28.19;64.67
66273;BME280;58450;52.150;4.466;2022-09-06T13:09:41;101498.44;;;28.58;62.94
66273;BME280;58450;52.150;4.466;2022-09-06T13:12:19;101502.41;;;27.43;65.84
66273;BME280;58450;52.150;4.466;2022-09-06T13:14:52;101496.75;;;27.64;65.93
66273;BME280;58450;52.150;4.466;2022-09-06T13:17:25;101495.16;;;27.57;65.72
66273;BME280;58450;52.150;4.466;2022-09-06T13:19:57;101501.59;;;27.37;69.40
66273;BME280;58450;52.150;4.466;2022-09-06T13:22:39;101498.28;;;26.75;68.93
66273;BME280;58450;52.150;4.466;2022-09-06T13:25:13;101505.00;;;26.27;74.02
66273;BME280;58450;52.150;4.466;2022-09-06T13:27:44;101495.06;;;26.00;76.18